Terminal Aerodrome Forecast
Issued by NWS Sioux Falls, SD

Home | Current Version | Previous Version | Graphics & Text | Print | Product List | Glossary Off
Versions: 1 2 3 4 5 6 7 8 9 10 11 12 13 14 15 16 17 18 19

000
FTUS43 KFSD 200500
TAFHON
TAF
KHON 200522Z 2006/2106 16009KT P6SM SCT100 BKN200
     FM201500 18009KT P6SM FEW250
     FM202000 20011KT P6SM FEW060
     FM210100 15006KT P6SM SCT100=

USA.gov is the U.S. government's official web portal to all federal, state and local government web resources and services.